createdAt,value
2023-04-26T00:00:18.994Z,30.079
2023-04-26T00:05:18.431Z,30.077
2023-04-26T00:10:19.232Z,30.079
2023-04-26T00:15:18.390Z,30.080
2023-04-26T00:20:18.460Z,30.082
2023-04-26T00:25:18.458Z,30.083
2023-04-26T00:30:18.764Z,30.083
2023-04-26T00:35:18.314Z,30.087
2023-04-26T00:40:18.462Z,30.091
2023-04-26T00:45:18.742Z,30.091
2023-04-26T00:50:18.526Z,30.090
2023-04-26T00:55:18.646Z,30.093
2023-04-26T01:00:18.565Z,30.098
2023-04-26T01:05:18.720Z,30.099
2023-04-26T01:10:18.506Z,30.100
2023-04-26T01:15:19.024Z,30.102
2023-04-26T01:20:18.516Z,30.103
2023-04-26T01:25:18.570Z,30.101
2023-04-26T01:30:18.677Z,30.102
2023-04-26T01:35:18.515Z,30.105
2023-04-26T01:40:18.600Z,30.103
2023-04-26T01:45:18.826Z,30.101
2023-04-26T01:50:18.777Z,30.101
2023-04-26T01:55:18.653Z,30.106
2023-04-26T02:00:16.294Z,30.109
2023-04-26T02:05:16.353Z,30.108
2023-04-26T02:10:16.282Z,30.108
2023-04-26T02:15:16.656Z,30.109
2023-04-26T02:20:16.305Z,30.110
2023-04-26T02:25:16.481Z,30.109
2023-04-26T02:30:16.608Z,30.109
2023-04-26T02:35:16.311Z,30.108
2023-04-26T02:40:16.476Z,30.106
2023-04-26T02:45:16.402Z,30.108
2023-04-26T02:50:16.437Z,30.104
2023-04-26T02:55:16.353Z,30.104
2023-04-26T03:00:16.740Z,30.109
2023-04-26T03:05:18.139Z,30.107
2023-04-26T03:10:17.373Z,30.109
2023-04-26T03:15:18.263Z,30.109
2023-04-26T03:20:17.539Z,30.108
2023-04-26T03:25:17.750Z,30.109
2023-04-26T03:30:17.436Z,30.110
2023-04-26T03:35:18.260Z,30.108
2023-04-26T03:40:17.503Z,30.110
2023-04-26T03:45:17.513Z,30.112
2023-04-26T03:50:17.534Z,30.107
2023-04-26T03:55:17.823Z,30.107
2023-04-26T04:00:16.505Z,30.110
2023-04-26T04:05:16.763Z,30.109
2023-04-26T04:10:16.761Z,30.111
2023-04-26T04:15:16.607Z,30.111
2023-04-26T04:20:16.632Z,30.110
2023-04-26T04:25:16.732Z,30.107
2023-04-26T04:30:16.701Z,30.107
2023-04-26T04:35:16.969Z,30.109
2023-04-26T04:40:16.554Z,30.109
2023-04-26T04:45:16.815Z,30.109
2023-04-26T04:50:17.025Z,30.107
2023-04-26T04:55:16.802Z,30.106
2023-04-26T05:00:16.662Z,30.105
2023-04-26T05:05:17.041Z,30.105
2023-04-26T05:10:16.613Z,30.105
2023-04-26T05:15:16.965Z,30.105
2023-04-26T05:20:16.996Z,30.105
2023-04-26T05:25:16.818Z,30.105
2023-04-26T05:30:16.730Z,30.104
2023-04-26T05:35:16.893Z,30.103
2023-04-26T05:40:16.750Z,30.103
2023-04-26T05:45:17.075Z,30.100
2023-04-26T05:50:17.844Z,30.100
2023-04-26T05:55:16.866Z,30.100
2023-04-26T06:00:16.760Z,30.101
2023-04-26T06:05:17.132Z,30.098
2023-04-26T06:10:16.780Z,30.100
2023-04-26T06:15:17.252Z,30.100
2023-04-26T06:20:17.419Z,30.100
2023-04-26T06:25:17.126Z,30.100
2023-04-26T06:30:16.789Z,30.103
2023-04-26T06:35:17.021Z,30.106
2023-04-26T06:40:16.861Z,30.106
2023-04-26T06:45:17.041Z,30.107
2023-04-26T06:50:17.177Z,30.107
2023-04-26T06:55:17.182Z,30.109
2023-04-26T07:00:17.156Z,30.109
2023-04-26T07:05:17.568Z,30.110
2023-04-26T07:10:18.594Z,30.115
2023-04-26T07:15:18.655Z,30.112
2023-04-26T07:20:18.302Z,30.113
2023-04-26T07:25:18.471Z,30.112
2023-04-26T07:30:18.841Z,30.115
2023-04-26T07:35:18.508Z,30.116
2023-04-26T07:40:20.448Z,30.117
2023-04-26T07:45:18.618Z,30.118
2023-04-26T07:50:18.464Z,30.117
2023-04-26T07:55:18.599Z,30.118
2023-04-26T08:00:18.579Z,30.119
2023-04-26T08:05:19.008Z,30.117
2023-04-26T08:10:19.059Z,30.117
2023-04-26T08:15:18.621Z,30.117
2023-04-26T08:20:18.806Z,30.118
2023-04-26T08:25:18.520Z,30.118
2023-04-26T08:30:18.694Z,30.119
2023-04-26T08:35:18.603Z,30.119
2023-04-26T08:40:18.723Z,30.120
2023-04-26T08:45:18.898Z,30.117
2023-04-26T08:50:18.522Z,30.117
2023-04-26T08:55:18.653Z,30.119
2023-04-26T09:00:18.620Z,30.118
2023-04-26T09:05:18.859Z,30.119
2023-04-26T09:10:16.531Z,30.119
2023-04-26T09:15:17.328Z,30.118
2023-04-26T09:20:16.198Z,30.122
2023-04-26T09:25:16.976Z,30.121
2023-04-26T09:30:16.351Z,30.123
2023-04-26T09:35:16.250Z,30.123
2023-04-26T09:40:16.509Z,30.124
2023-04-26T09:45:16.364Z,30.124
2023-04-26T09:50:16.452Z,30.127
2023-04-26T09:55:31.064Z,30.127
2023-04-26T10:00:16.352Z,30.130
2023-04-26T10:05:16.385Z,30.130
2023-04-26T10:10:16.513Z,30.131
2023-04-26T10:15:16.591Z,30.132
2023-04-26T10:20:16.370Z,30.135
2023-04-26T10:25:16.492Z,30.137
2023-04-26T10:30:16.915Z,30.139
2023-04-26T10:35:16.433Z,30.139
2023-04-26T10:40:16.738Z,30.141
2023-04-26T10:45:16.501Z,30.142
2023-04-26T10:50:16.511Z,30.144
2023-04-26T10:55:16.468Z,30.145
2023-04-26T11:00:16.543Z,30.146
2023-04-26T11:05:16.605Z,30.146
2023-04-26T11:10:16.679Z,30.146
2023-04-26T11:15:16.646Z,30.147
2023-04-26T11:20:16.633Z,30.149
2023-04-26T11:25:16.822Z,30.150
2023-04-26T11:30:16.606Z,30.151
2023-04-26T11:35:16.829Z,30.154
2023-04-26T11:40:17.012Z,30.155
2023-04-26T11:45:16.704Z,30.156
2023-04-26T11:50:16.587Z,30.157
2023-04-26T11:55:16.849Z,30.156
2023-04-26T12:00:16.684Z,30.157
2023-04-26T12:05:16.687Z,30.158
2023-04-26T12:10:16.864Z,30.161
2023-04-26T12:15:16.828Z,30.161
2023-04-26T12:20:16.724Z,30.161
2023-04-26T12:25:16.887Z,30.161
2023-04-26T12:30:17.056Z,30.160
2023-04-26T12:35:16.877Z,30.160
2023-04-26T12:40:16.896Z,30.160
2023-04-26T12:45:17.108Z,30.159
2023-04-26T12:50:18.561Z,30.159
2023-04-26T12:55:16.903Z,30.159
2023-04-26T13:00:16.921Z,30.160
2023-04-26T13:05:16.722Z,30.160
2023-04-26T13:10:17.197Z,30.160
2023-04-26T13:15:17.693Z,30.160
2023-04-26T13:20:16.950Z,30.160
2023-04-26T13:25:17.049Z,30.162
2023-04-26T13:30:16.964Z,30.162
2023-04-26T13:35:17.029Z,30.163
2023-04-26T13:40:17.046Z,30.164
2023-04-26T13:45:19.237Z,30.166
2023-04-26T13:50:17.018Z,30.169
2023-04-26T13:55:17.323Z,30.169
2023-04-26T14:00:17.001Z,30.168
2023-04-26T14:05:17.124Z,30.171
2023-04-26T14:10:17.001Z,30.171
2023-04-26T14:15:17.025Z,30.171
2023-04-26T14:20:17.054Z,30.169
2023-04-26T14:25:17.532Z,30.166
2023-04-26T14:30:17.351Z,30.168
2023-04-26T14:35:17.049Z,30.170
2023-04-26T14:40:17.329Z,30.168
2023-04-26T14:45:17.090Z,30.167
2023-04-26T14:50:17.034Z,30.168
2023-04-26T14:55:17.466Z,30.166
2023-04-26T15:00:17.193Z,30.165
2023-04-26T15:05:17.864Z,30.166
2023-04-26T15:10:17.269Z,30.165
2023-04-26T15:15:17.115Z,30.163
2023-04-26T15:20:17.133Z,30.162
2023-04-26T15:25:17.276Z,30.160
2023-04-26T15:30:17.259Z,30.161
2023-04-26T15:35:17.349Z,30.159
2023-04-26T15:40:18.123Z,30.158
2023-04-26T15:45:17.307Z,30.158
2023-04-26T15:50:17.209Z,30.156
2023-04-26T15:55:17.192Z,30.154
2023-04-26T16:00:17.261Z,30.154
2023-04-26T16:05:17.693Z,30.155
2023-04-26T16:10:17.262Z,30.155
2023-04-26T16:15:17.648Z,30.155
2023-04-26T16:20:17.333Z,30.153
2023-04-26T16:25:17.413Z,30.151
2023-04-26T16:30:17.323Z,30.149
2023-04-26T16:35:17.374Z,30.148
2023-04-26T16:40:17.425Z,30.148
2023-04-26T16:45:17.318Z,30.147
2023-04-26T16:50:17.586Z,30.149
2023-04-26T16:55:17.773Z,30.147
2023-04-26T17:00:17.488Z,30.147
2023-04-26T17:05:17.362Z,30.147
2023-04-26T17:10:17.539Z,30.147
2023-04-26T17:15:18.423Z,30.147
2023-04-26T17:20:17.724Z,30.148
2023-04-26T17:25:18.564Z,30.148
2023-04-26T17:30:17.405Z,30.149
2023-04-26T17:35:17.525Z,30.147
2023-04-26T17:40:17.830Z,30.147
2023-04-26T17:45:17.428Z,30.146
2023-04-26T17:50:17.552Z,30.144
2023-04-26T17:55:17.675Z,30.145
2023-04-26T18:00:18.076Z,30.144
2023-04-26T18:05:17.501Z,30.143
2023-04-26T18:10:18.099Z,30.139
2023-04-26T18:15:17.536Z,30.140
2023-04-26T18:20:17.704Z,30.141
2023-04-26T18:30:17.579Z,30.142
2023-04-26T18:35:17.920Z,30.142
2023-04-26T18:40:18.054Z,30.140
2023-04-26T18:45:17.807Z,30.137
2023-04-26T18:50:17.870Z,30.136
2023-04-26T18:55:17.652Z,30.136
2023-04-26T19:00:17.781Z,30.136
2023-04-26T19:05:17.915Z,30.135
2023-04-26T19:10:18.536Z,30.133
2023-04-26T19:15:17.670Z,30.132
2023-04-26T19:20:17.910Z,30.130
2023-04-26T19:25:18.489Z,30.129
2023-04-26T19:30:18.188Z,30.130
2023-04-26T19:35:18.037Z,30.129
2023-04-26T19:40:18.906Z,30.130
2023-04-26T19:45:18.157Z,30.127
2023-04-26T19:50:17.986Z,30.127
2023-04-26T19:55:17.938Z,30.127
2023-04-26T20:00:18.313Z,30.123
2023-04-26T20:05:18.148Z,30.124
2023-04-26T20:10:18.218Z,30.122
2023-04-26T20:15:18.283Z,30.119
2023-04-26T20:20:18.418Z,30.121
2023-04-26T20:25:18.161Z,30.120
2023-04-26T20:30:18.375Z,30.117
2023-04-26T20:35:18.139Z,30.118
2023-04-26T20:40:19.053Z,30.111
2023-04-26T20:45:18.376Z,30.109
2023-04-26T20:50:18.466Z,30.113
2023-04-26T20:55:18.418Z,30.118
2023-04-26T21:00:18.386Z,30.119
2023-04-26T21:05:18.303Z,30.118
2023-04-26T21:10:18.595Z,30.115
2023-04-26T21:15:18.396Z,30.117
2023-04-26T21:20:18.801Z,30.119
2023-04-26T21:25:18.512Z,30.115
2023-04-26T21:30:18.166Z,30.115
2023-04-26T21:35:18.436Z,30.113
2023-04-26T21:40:18.528Z,30.115
2023-04-26T21:45:18.797Z,30.115
2023-04-26T21:50:19.787Z,30.117
2023-04-26T21:55:18.830Z,30.114
2023-04-26T22:00:18.387Z,30.112
2023-04-26T22:05:18.503Z,30.113
2023-04-26T22:10:18.556Z,30.115
2023-04-26T22:15:18.441Z,30.110
2023-04-26T22:20:18.514Z,30.112
2023-04-26T22:25:18.663Z,30.114
2023-04-26T22:30:25.315Z,30.114
2023-04-26T22:35:18.457Z,30.116
2023-04-26T22:40:18.593Z,30.115
2023-04-26T22:45:18.621Z,30.116
2023-04-26T22:50:18.826Z,30.119
2023-04-26T22:55:18.561Z,30.121
2023-04-26T23:00:18.829Z,30.122
2023-04-26T23:05:16.560Z,30.123
2023-04-26T23:10:16.459Z,30.123
2023-04-26T23:15:16.221Z,30.126
2023-04-26T23:20:16.327Z,30.127
2023-04-26T23:25:16.309Z,30.127
2023-04-26T23:30:16.268Z,30.125
2023-04-26T23:35:16.404Z,30.125
2023-04-26T23:40:16.647Z,30.127
2023-04-26T23:45:16.347Z,30.129
2023-04-26T23:50:16.425Z,30.130
2023-04-26T23:55:16.883Z,30.130
